Time;durP1;ratioP1;P1;durP2;ratioP2;P2;SDS_P1;SDS_P2;PMS_P1;PMS_P2;Temp;Humidity;BMP_temperature;BMP_pressure;BME280_temperature;BME280_humidity;BME280_pressure;Samples;Min_cycle;Max_cycle;Signal;HPM_P1;HPM_P2
2024/01/17 00:01:59;;;;;;;9.75;5.15;;;0.20;99.90;;;;;;4989268;28;20042;-72
2024/01/17 00:04:27;;;;;;;10.52;5.45;;;0.20;99.90;;;;;;5019510;28;20761;-72
2024/01/17 00:06:57;;;;;;;8.77;5.35;;;0.20;99.90;;;;;;4992614;28;20050;-72
2024/01/17 00:09:23;;;;;;;7.60;4.88;;;0.20;99.90;;;;;;4982835;28;20053;-72
2024/01/17 00:11:52;;;;;;;9.43;5.20;;;0.10;99.90;;;;;;4995982;28;20053;-72
2024/01/17 00:14:17;;;;;;;9.10;4.90;;;0.20;99.90;;;;;;5026796;28;20052;-72
2024/01/17 00:16:43;;;;;;;10.85;5.50;;;0.10;99.90;;;;;;4992317;28;20042;-72
2024/01/17 00:19:09;;;;;;;7.93;4.68;;;0.10;99.90;;;;;;5021288;28;20121;-72
2024/01/17 00:21:35;;;;;;;7.47;5.13;;;0.10;99.90;;;;;;5029077;28;20058;-72
2024/01/17 00:24:01;;;;;;;12.50;5.60;;;0.10;99.90;;;;;;4985744;28;20124;-72
2024/01/17 00:26:27;;;;;;;8.05;4.82;;;0.00;99.90;;;;;;5014152;28;20519;-72
2024/01/17 00:28:52;;;;;;;10.35;4.90;;;0.00;99.90;;;;;;4999138;28;20092;-71
2024/01/17 00:31:18;;;;;;;10.85;5.45;;;0.00;99.90;;;;;;4996690;28;20402;-72
2024/01/17 00:33:44;;;;;;;10.90;5.60;;;-0.10;99.90;;;;;;5015209;28;20621;-72
2024/01/17 00:36:10;;;;;;;9.80;6.03;;;0.00;99.90;;;;;;4980447;28;20478;-72
2024/01/17 00:38:36;;;;;;;10.70;6.75;;;-0.10;99.90;;;;;;4992156;28;20440;-72
2024/01/17 00:41:05;;;;;;;10.25;5.50;;;-0.10;99.90;;;;;;4982029;28;20037;-72
2024/01/17 00:43:32;;;;;;;10.23;6.03;;;-0.10;99.90;;;;;;5027044;28;20101;-72
2024/01/17 00:45:58;;;;;;;9.70;6.07;;;-0.10;99.90;;;;;;4993328;28;20287;-72
2024/01/17 00:48:24;;;;;;;8.38;5.32;;;-0.10;99.90;;;;;;4993505;28;20034;-72
2024/01/17 00:50:50;;;;;;;8.43;5.57;;;-0.10;99.90;;;;;;4992441;28;20038;-72
2024/01/17 00:53:16;;;;;;;10.77;5.80;;;-0.10;99.90;;;;;;4992687;28;20453;-72
2024/01/17 00:55:41;;;;;;;8.98;5.22;;;-0.10;99.90;;;;;;4979513;28;20473;-71
2024/01/17 00:58:07;;;;;;;9.10;5.25;;;0.00;99.90;;;;;;4989429;28;20218;-72
2024/01/17 01:00:33;;;;;;;12.50;6.18;;;0.00;99.90;;;;;;5006307;28;20034;-71
2024/01/17 01:02:59;;;;;;;12.07;6.13;;;0.00;99.90;;;;;;4993377;28;20045;-71
2024/01/17 01:05:24;;;;;;;12.10;5.82;;;0.00;99.90;;;;;;4997936;28;20224;-72
2024/01/17 01:07:51;;;;;;;11.68;6.30;;;0.00;99.90;;;;;;4988525;28;20513;-71
2024/01/17 01:10:17;;;;;;;10.38;6.45;;;0.10;99.90;;;;;;4986756;28;21238;-72
2024/01/17 01:12:43;;;;;;;9.63;6.43;;;0.00;99.90;;;;;;4993736;28;20049;-72
2024/01/17 01:15:09;;;;;;;8.43;6.13;;;0.00;99.90;;;;;;4982922;28;20048;-71
2024/01/17 01:17:35;;;;;;;12.38;6.40;;;0.10;99.90;;;;;;4996283;28;20397;-72
2024/01/17 01:20:00;;;;;;;9.98;6.20;;;0.00;99.90;;;;;;4994348;28;20049;-71
2024/01/17 01:22:26;;;;;;;13.07;6.57;;;0.00;99.90;;;;;;4987661;28;20269;-71
2024/01/17 01:24:52;;;;;;;9.60;6.97;;;0.00;99.90;;;;;;4982129;28;20126;-72
2024/01/17 01:27:18;;;;;;;9.85;6.68;;;0.10;99.90;;;;;;4996717;28;20489;-71
2024/01/17 01:29:44;;;;;;;10.40;6.78;;;0.10;99.90;;;;;;4992897;28;20158;-71
2024/01/17 01:32:09;;;;;;;10.88;6.68;;;0.10;99.90;;;;;;4987339;28;20379;-71
2024/01/17 01:34:35;;;;;;;13.77;7.30;;;0.10;99.90;;;;;;4991367;28;20515;-71
2024/01/17 01:37:01;;;;;;;13.07;7.40;;;0.10;99.90;;;;;;4981405;28;20084;-71
2024/01/17 01:39:27;;;;;;;11.05;7.10;;;0.00;99.90;;;;;;5014917;28;20053;-71
2024/01/17 01:41:53;;;;;;;13.13;7.70;;;0.00;99.90;;;;;;4984344;28;20069;-71
2024/01/17 01:44:19;;;;;;;11.48;7.50;;;0.00;99.90;;;;;;4996931;28;20065;-71
2024/01/17 01:46:46;;;;;;;12.90;7.80;;;0.00;99.90;;;;;;4980002;28;20073;-72
2024/01/17 01:49:16;;;;;;;11.70;8.02;;;0.00;99.90;;;;;;4985148;28;20053;-72
2024/01/17 01:51:44;;;;;;;11.90;8.20;;;0.00;99.90;;;;;;4987340;28;20355;-72
2024/01/17 01:54:13;;;;;;;13.48;8.55;;;0.00;99.90;;;;;;4991447;28;20117;-72
2024/01/17 01:56:40;;;;;;;14.73;8.50;;;0.00;99.90;;;;;;4994376;28;20529;-71
2024/01/17 01:59:07;;;;;;;12.60;8.82;;;0.10;99.90;;;;;;4981459;28;20505;-71
2024/01/17 02:01:33;;;;;;;12.70;9.10;;;0.10;99.90;;;;;;4991225;28;20549;-71
2024/01/17 02:04:00;;;;;;;15.65;8.73;;;0.10;99.90;;;;;;4993348;28;20132;-71
2024/01/17 02:06:29;;;;;;;14.10;9.07;;;0.10;99.90;;;;;;4985422;28;20178;-72
2024/01/17 02:08:56;;;;;;;11.40;8.63;;;0.10;99.90;;;;;;5020164;28;20049;-71
2024/01/17 02:11:22;;;;;;;12.00;8.77;;;0.10;99.90;;;;;;5014971;28;20523;-71
2024/01/17 02:13:49;;;;;;;14.23;9.50;;;0.10;99.90;;;;;;4989618;28;20045;-72
2024/01/17 02:16:15;;;;;;;16.52;9.88;;;0.10;99.90;;;;;;4994137;28;20072;-71
2024/01/17 02:18:43;;;;;;;12.98;8.73;;;0.10;99.90;;;;;;4997811;28;20374;-71
2024/01/17 02:21:10;;;;;;;12.70;9.25;;;0.10;99.90;;;;;;4998619;28;20134;-71
2024/01/17 02:23:36;;;;;;;16.08;9.68;;;0.10;99.90;;;;;;5012736;28;20049;-71
2024/01/17 02:26:02;;;;;;;15.40;10.18;;;0.10;99.90;;;;;;5028755;28;20052;-71
2024/01/17 02:28:30;;;;;;;14.38;10.80;;;0.10;99.90;;;;;;4995269;28;20042;-71
2024/01/17 02:30:56;;;;;;;13.40;9.80;;;0.00;99.90;;;;;;4983531;28;20034;-71
2024/01/17 02:33:22;;;;;;;15.00;9.75;;;0.10;99.90;;;;;;4995419;28;20046;-72
2024/01/17 02:35:48;;;;;;;17.17;9.50;;;0.00;99.90;;;;;;5001208;28;20033;-72
2024/01/17 02:38:14;;;;;;;13.15;9.95;;;0.00;99.90;;;;;;4982720;28;20064;-71
2024/01/17 02:40:40;;;;;;;17.05;9.98;;;0.00;99.90;;;;;;5000377;28;20143;-71
2024/01/17 02:43:06;;;;;;;15.77;10.45;;;0.00;99.90;;;;;;5026728;28;20050;-71
2024/01/17 02:45:32;;;;;;;13.43;9.93;;;0.00;99.90;;;;;;4980264;28;20046;-71
2024/01/17 02:47:58;;;;;;;13.75;10.23;;;0.00;99.90;;;;;;5001234;28;20069;-71
2024/01/17 02:50:24;;;;;;;15.10;10.32;;;0.00;99.90;;;;;;4980448;28;21020;-71
2024/01/17 02:52:50;;;;;;;20.75;10.38;;;0.00;99.90;;;;;;5001857;28;20723;-72
2024/01/17 02:55:16;;;;;;;15.73;10.75;;;0.00;99.90;;;;;;4984996;28;20042;-71
2024/01/17 02:57:42;;;;;;;14.55;10.55;;;0.00;99.90;;;;;;5002618;28;20042;-71
2024/01/17 03:00:09;;;;;;;16.58;10.95;;;0.00;99.90;;;;;;4982159;28;20624;-71
2024/01/17 03:02:38;;;;;;;13.15;10.98;;;0.00;99.90;;;;;;5018806;28;20073;-71
2024/01/17 03:05:05;;;;;;;15.80;11.18;;;0.00;99.90;;;;;;4982414;28;20052;-71
2024/01/17 03:07:31;;;;;;;17.25;12.10;;;0.00;99.90;;;;;;5000023;28;20051;-71
2024/01/17 03:09:57;;;;;;;16.08;11.13;;;0.00;99.90;;;;;;4995972;28;20076;-71
2024/01/17 03:12:26;;;;;;;18.77;11.23;;;0.00;99.90;;;;;;4985518;28;20033;-71
2024/01/17 03:14:52;;;;;;;16.27;10.93;;;-0.10;99.90;;;;;;5017377;28;20566;-72
2024/01/17 03:17:18;;;;;;;16.23;10.98;;;0.00;99.90;;;;;;4990385;28;20046;-72
2024/01/17 03:19:47;;;;;;;14.82;11.05;;;-0.10;99.90;;;;;;5011725;28;20041;-71
2024/01/17 03:22:16;;;;;;;19.20;11.50;;;-0.10;99.90;;;;;;4994734;28;20033;-72
2024/01/17 03:24:42;;;;;;;19.42;11.75;;;0.00;99.90;;;;;;4995667;28;20050;-71
2024/01/17 03:27:08;;;;;;;16.98;12.27;;;-0.10;99.90;;;;;;5029204;28;20091;-71
2024/01/17 03:29:33;;;;;;;14.77;11.65;;;-0.10;99.90;;;;;;4983113;28;20077;-71
2024/01/17 03:31:59;;;;;;;18.35;12.57;;;-0.10;99.90;;;;;;4983392;28;20070;-71
2024/01/17 03:34:25;;;;;;;17.13;11.95;;;-0.10;99.90;;;;;;4984617;28;20451;-71
2024/01/17 03:36:51;;;;;;;19.05;11.45;;;-0.10;99.90;;;;;;4996258;28;20065;-71
2024/01/17 03:39:16;;;;;;;16.35;12.18;;;-0.10;99.90;;;;;;5000009;28;20046;-72
2024/01/17 03:41:42;;;;;;;17.42;12.30;;;-0.10;99.90;;;;;;5004005;28;20046;-71
2024/01/17 03:44:08;;;;;;;19.70;12.40;;;-0.10;99.90;;;;;;4998509;28;20046;-72
2024/01/17 03:46:34;;;;;;;19.45;12.52;;;-0.10;99.90;;;;;;4995607;28;20116;-71
2024/01/17 03:48:59;;;;;;;17.17;11.85;;;-0.10;99.90;;;;;;4992894;28;20054;-71
2024/01/17 03:51:25;;;;;;;18.20;11.60;;;-0.20;99.90;;;;;;4997213;28;20034;-71
2024/01/17 03:53:52;;;;;;;19.00;12.23;;;-0.20;99.90;;;;;;4983776;28;20038;-71
2024/01/17 03:56:17;;;;;;;18.73;12.65;;;-0.20;99.90;;;;;;4980436;28;20373;-71
2024/01/17 03:58:43;;;;;;;18.92;12.75;;;-0.20;99.90;;;;;;4997935;28;20117;-71
2024/01/17 04:01:11;;;;;;;19.48;12.50;;;-0.20;99.90;;;;;;5026172;28;20137;-71
2024/01/17 04:03:37;;;;;;;19.88;12.88;;;-0.20;99.90;;;;;;4997280;28;20034;-72
2024/01/17 04:06:03;;;;;;;19.45;12.73;;;-0.20;99.90;;;;;;4993048;28;20514;-72
2024/01/17 04:08:29;;;;;;;18.50;12.95;;;-0.20;99.90;;;;;;4993901;28;20481;-72
2024/01/17 04:10:55;;;;;;;19.33;13.07;;;-0.20;99.90;;;;;;5028277;28;20396;-71
2024/01/17 04:13:21;;;;;;;17.77;12.85;;;-0.20;99.90;;;;;;4992975;28;20042;-71
2024/01/17 04:15:47;;;;;;;20.15;12.90;;;-0.20;99.90;;;;;;4998384;28;20130;-71
2024/01/17 04:18:13;;;;;;;20.27;13.05;;;-0.20;99.90;;;;;;4996984;28;20042;-71
2024/01/17 04:20:39;;;;;;;20.70;13.63;;;-0.20;99.90;;;;;;4998883;28;20037;-71
2024/01/17 04:23:06;;;;;;;21.42;13.43;;;-0.20;99.90;;;;;;4983050;28;20092;-72
2024/01/17 04:25:31;;;;;;;18.85;12.77;;;-0.20;99.90;;;;;;4982315;28;20038;-71
2024/01/17 04:27:57;;;;;;;22.67;13.40;;;-0.20;99.90;;;;;;4999898;28;20320;-71
2024/01/17 04:30:24;;;;;;;20.20;12.57;;;-0.20;99.90;;;;;;4981471;28;20042;-72
2024/01/17 04:32:50;;;;;;;17.65;12.93;;;-0.20;99.90;;;;;;4995725;28;20037;-71
2024/01/17 04:35:20;;;;;;;18.17;13.48;;;-0.20;99.90;;;;;;4980444;28;20186;-72
2024/01/17 04:37:46;;;;;;;16.77;13.05;;;-0.20;99.90;;;;;;4991076;28;20150;-71
2024/01/17 04:40:13;;;;;;;21.45;13.43;;;-0.20;99.90;;;;;;5016327;28;20050;-71
2024/01/17 04:42:39;;;;;;;17.02;13.50;;;-0.20;99.90;;;;;;4978908;28;20457;-72
2024/01/17 04:45:05;;;;;;;18.13;12.63;;;-0.30;99.90;;;;;;5022926;28;20053;-71
2024/01/17 04:47:31;;;;;;;20.17;13.55;;;-0.20;99.90;;;;;;4981626;28;20049;-72
2024/01/17 04:49:57;;;;;;;20.10;13.25;;;-0.30;99.90;;;;;;4986025;28;20132;-72
2024/01/17 04:52:23;;;;;;;18.77;13.57;;;-0.30;99.90;;;;;;4996980;28;20096;-71
2024/01/17 04:54:49;;;;;;;18.92;12.50;;;-0.30;99.90;;;;;;4997621;28;20121;-71
2024/01/17 04:57:15;;;;;;;19.95;13.60;;;-0.30;98.10;;;;;;5005793;28;21169;-71
2024/01/17 04:59:42;;;;;;;19.77;13.27;;;-0.30;97.60;;;;;;4995651;28;20817;-71
2024/01/17 05:02:08;;;;;;;17.48;13.30;;;-0.30;78.50;;;;;;4980532;28;20091;-71
2024/01/17 05:04:34;;;;;;;20.58;13.75;;;-0.30;86.90;;;;;;4978582;28;20030;-71
2024/01/17 05:07:01;;;;;;;19.38;13.80;;;-0.30;93.00;;;;;;5026933;28;20049;-72
2024/01/17 05:09:27;;;;;;;16.83;12.75;;;-0.30;72.80;;;;;;5013852;28;20145;-71
2024/01/17 05:11:55;;;;;;;19.20;12.65;;;-0.30;74.50;;;;;;4991368;28;20132;-71
2024/01/17 05:14:21;;;;;;;18.70;12.65;;;-0.30;84.90;;;;;;4977690;28;20049;-71
2024/01/17 05:16:47;;;;;;;18.35;13.00;;;-0.30;81.30;;;;;;4993217;28;20104;-72
2024/01/17 05:19:12;;;;;;;18.55;13.88;;;-0.30;88.00;;;;;;4978351;28;20052;-71
2024/01/17 05:21:38;;;;;;;22.60;12.93;;;-0.30;98.10;;;;;;4978513;28;20104;-72
2024/01/17 05:24:04;;;;;;;17.77;12.85;;;-0.30;69.90;;;;;;5021187;28;20072;-72
2024/01/17 05:26:29;;;;;;;17.60;12.52;;;-0.30;87.20;;;;;;4991040;28;20053;-71
2024/01/17 05:28:55;;;;;;;18.25;12.88;;;-0.30;61.50;;;;;;4988450;28;20038;-72
2024/01/17 05:31:21;;;;;;;19.42;12.90;;;-0.30;80.70;;;;;;5006060;28;20042;-71
2024/01/17 05:33:47;;;;;;;20.08;13.48;;;-0.30;72.80;;;;;;4997081;28;20148;-72
2024/01/17 05:36:12;;;;;;;18.30;12.38;;;-0.30;61.10;;;;;;4996037;28;20074;-71
2024/01/17 05:38:38;;;;;;;20.27;13.38;;;-0.30;49.50;;;;;;4995938;28;20085;-72
2024/01/17 05:41:04;;;;;;;17.25;12.20;;;-0.30;54.40;;;;;;4993279;28;20096;-71
2024/01/17 05:43:30;;;;;;;16.55;12.07;;;-0.40;50.10;;;;;;4987986;28;20034;-72
2024/01/17 05:45:59;;;;;;;20.30;12.60;;;-0.30;36.00;;;;;;4999149;28;20050;-71
2024/01/17 05:48:26;;;;;;;19.10;12.60;;;-0.40;36.00;;;;;;4981222;28;20420;-72
2024/01/17 05:50:52;;;;;;;18.65;12.75;;;-0.40;15.20;;;;;;4991035;28;20054;-72
2024/01/17 05:53:17;;;;;;;19.05;13.48;;;-0.50;1.00;;;;;;4992852;28;20042;-72
2024/01/17 05:55:43;;;;;;;18.38;12.52;;;-0.60;1.00;;;;;;4989798;28;20050;-72
2024/01/17 05:58:09;;;;;;;15.40;12.60;;;-0.60;1.00;;;;;;4997985;28;20038;-72
2024/01/17 06:00:35;;;;;;;20.08;12.88;;;-0.80;1.00;;;;;;4988197;28;20056;-72
2024/01/17 06:03:01;;;;;;;18.77;12.75;;;-0.80;1.00;;;;;;4993487;28;20033;-71
2024/01/17 06:05:27;;;;;;;18.63;13.25;;;-0.80;1.00;;;;;;4993957;28;20132;-72
2024/01/17 06:07:55;;;;;;;18.05;13.43;;;-0.80;1.00;;;;;;4979964;28;20085;-71
2024/01/17 06:10:21;;;;;;;20.70;13.40;;;-0.80;1.00;;;;;;4982523;28;20049;-71
2024/01/17 06:12:46;;;;;;;18.60;13.52;;;-0.80;1.00;;;;;;4990265;28;20057;-71
2024/01/17 06:15:12;;;;;;;14.85;11.60;;;-0.80;1.00;;;;;;4991380;28;20128;-71
2024/01/17 06:17:38;;;;;;;19.48;13.73;;;-0.90;1.00;;;;;;4981958;28;20520;-72
2024/01/17 06:20:05;;;;;;;16.20;12.48;;;-0.90;1.00;;;;;;4989487;28;20401;-71
2024/01/17 06:22:31;;;;;;;18.05;12.43;;;-0.90;1.00;;;;;;4989383;28;20253;-71
2024/01/17 06:24:57;;;;;;;19.00;12.40;;;-0.90;1.00;;;;;;4991787;28;20041;-71
2024/01/17 06:27:23;;;;;;;19.63;13.02;;;-0.80;1.00;;;;;;4991821;28;20046;-72
2024/01/17 06:29:49;;;;;;;19.98;13.13;;;-0.90;1.00;;;;;;4994355;28;20050;-71
2024/01/17 06:32:15;;;;;;;17.10;12.18;;;-0.90;99.90;;;;;;4976182;28;20069;-71
2024/01/17 06:34:41;;;;;;;18.42;12.55;;;-1.00;99.90;;;;;;4998233;28;20076;-71
2024/01/17 06:37:06;;;;;;;17.27;12.65;;;-1.00;99.90;;;;;;4981216;28;20055;-72
2024/01/17 06:39:33;;;;;;;18.58;12.98;;;-1.00;99.90;;;;;;4987461;28;20133;-71
2024/01/17 06:41:59;;;;;;;18.98;13.27;;;-1.00;99.90;;;;;;4994035;28;20034;-72
2024/01/17 06:44:27;;;;;;;18.90;12.82;;;-1.00;99.90;;;;;;5022671;28;20050;-71
2024/01/17 06:46:53;;;;;;;16.00;12.30;;;-1.00;99.90;;;;;;4990514;28;20671;-71
2024/01/17 06:49:18;;;;;;;21.02;12.73;;;-1.10;99.90;;;;;;4977758;28;20041;-71
2024/01/17 06:51:45;;;;;;;16.65;12.23;;;-1.10;99.90;;;;;;4978203;28;20050;-72
2024/01/17 06:54:11;;;;;;;16.55;12.45;;;-1.10;99.90;;;;;;4990471;28;20245;-71
2024/01/17 06:56:37;;;;;;;17.25;12.13;;;-1.20;99.90;;;;;;4983364;28;20100;-71
2024/01/17 06:59:04;;;;;;;16.45;12.30;;;-1.20;99.90;;;;;;4995313;28;20092;-71
2024/01/17 07:01:30;;;;;;;18.33;12.65;;;-1.20;99.90;;;;;;4984708;28;20108;-71
2024/01/17 07:03:56;;;;;;;16.48;12.45;;;-1.20;99.90;;;;;;5024428;28;20121;-71
2024/01/17 07:06:22;;;;;;;18.52;13.10;;;-1.20;99.90;;;;;;4986560;28;20117;-72
2024/01/17 07:08:48;;;;;;;16.40;12.57;;;-1.20;99.90;;;;;;4997318;28;20052;-71
2024/01/17 07:11:14;;;;;;;18.98;12.25;;;-1.20;99.90;;;;;;4986289;28;20042;-71
2024/01/17 07:13:40;;;;;;;15.70;11.38;;;-1.30;99.90;;;;;;5033655;28;20117;-71
2024/01/17 07:16:06;;;;;;;14.98;11.93;;;-1.30;99.90;;;;;;4991728;28;20502;-71
2024/01/17 07:18:33;;;;;;;15.57;11.82;;;-1.30;99.90;;;;;;4993119;28;20038;-71
2024/01/17 07:21:05;;;;;;;17.63;12.35;;;-1.40;99.90;;;;;;4983238;28;20049;-72
2024/01/17 07:23:32;;;;;;;22.30;12.93;;;-1.40;99.90;;;;;;4984400;28;20453;-72
2024/01/17 07:25:58;;;;;;;19.98;12.60;;;-1.40;99.90;;;;;;4994761;28;20077;-71
2024/01/17 07:28:24;;;;;;;16.73;12.13;;;-1.40;99.90;;;;;;5023179;28;20121;-71
2024/01/17 07:30:50;;;;;;;18.98;12.43;;;-1.40;99.90;;;;;;5001718;28;20156;-71
2024/01/17 07:33:16;;;;;;;17.58;12.70;;;-1.50;99.90;;;;;;4988495;28;20046;-71
2024/01/17 07:35:42;;;;;;;23.13;13.68;;;-1.50;99.90;;;;;;4984032;28;20110;-71
2024/01/17 07:38:08;;;;;;;17.50;12.20;;;-1.50;99.90;;;;;;4995743;28;20042;-71
2024/01/17 07:40:34;;;;;;;18.75;13.13;;;-1.50;99.90;;;;;;4997187;28;20048;-71
2024/01/17 07:43:00;;;;;;;16.58;12.60;;;-1.50;99.90;;;;;;4985364;28;20033;-72
2024/01/17 07:45:26;;;;;;;21.15;13.48;;;-1.60;99.90;;;;;;4990111;28;20048;-71
2024/01/17 07:47:52;;;;;;;21.65;12.55;;;-1.60;99.90;;;;;;4995125;28;20046;-71
2024/01/17 07:50:19;;;;;;;21.77;13.20;;;-1.60;99.90;;;;;;5004111;28;20046;-72
2024/01/17 07:52:45;;;;;;;17.15;12.90;;;-1.60;99.90;;;;;;4992451;28;20814;-71
2024/01/17 07:55:11;;;;;;;17.23;13.30;;;-1.60;99.90;;;;;;5001591;28;20053;-72
2024/01/17 07:57:37;;;;;;;18.30;13.02;;;-1.60;99.90;;;;;;4992606;28;20499;-71
2024/01/17 08:00:04;;;;;;;20.63;13.68;;;-1.60;99.90;;;;;;4996895;28;20125;-71
2024/01/17 08:02:31;;;;;;;18.73;13.05;;;-1.60;99.90;;;;;;5011014;28;20042;-71
2024/01/17 08:04:57;;;;;;;19.20;13.30;;;-1.60;99.90;;;;;;4978418;28;20216;-71
2024/01/17 08:07:26;;;;;;;20.30;13.10;;;-1.70;99.90;;;;;;4990710;28;20122;-71
2024/01/17 08:09:52;;;;;;;16.52;12.70;;;-1.70;99.90;;;;;;4997578;28;20100;-71
2024/01/17 08:12:19;;;;;;;19.38;12.60;;;-1.70;99.90;;;;;;4995345;28;20147;-71
2024/01/17 08:14:45;;;;;;;16.65;12.52;;;-1.70;99.90;;;;;;5013983;28;20046;-72
2024/01/17 08:17:11;;;;;;;21.23;13.35;;;-1.60;99.90;;;;;;4982161;28;20301;-71
2024/01/17 08:19:37;;;;;;;19.35;12.65;;;-1.70;99.90;;;;;;4993378;28;20095;-72
2024/01/17 08:22:04;;;;;;;18.65;12.73;;;-1.70;99.90;;;;;;5023994;28;20085;-71
2024/01/17 08:24:30;;;;;;;15.95;12.57;;;-1.70;99.90;;;;;;4976043;28;20045;-71
2024/01/17 08:26:57;;;;;;;20.08;12.88;;;-1.60;99.90;;;;;;4975659;28;20057;-71
2024/01/17 08:29:23;;;;;;;17.95;12.20;;;-1.60;99.90;;;;;;4973062;28;20444;-71
2024/01/17 08:31:49;;;;;;;16.70;12.73;;;-1.60;99.90;;;;;;4995891;28;20111;-71
2024/01/17 08:34:15;;;;;;;17.33;12.75;;;-1.60;99.90;;;;;;4997356;28;20034;-71
2024/01/17 08:36:41;;;;;;;18.83;12.50;;;-1.50;99.90;;;;;;4992819;28;20058;-71
2024/01/17 08:39:07;;;;;;;20.45;12.43;;;-1.50;99.90;;;;;;4973831;28;20081;-72
2024/01/17 08:41:33;;;;;;;19.80;12.93;;;-1.50;99.90;;;;;;5003831;28;20046;-71
2024/01/17 08:44:02;;;;;;;20.33;12.90;;;-1.50;99.90;;;;;;4993142;28;20034;-71
2024/01/17 08:46:29;;;;;;;19.55;12.65;;;-1.40;99.90;;;;;;5004084;28;20053;-71
2024/01/17 08:48:54;;;;;;;17.02;12.18;;;-1.40;99.90;;;;;;4994052;28;20131;-71
2024/01/17 08:51:24;;;;;;;18.45;11.93;;;-1.40;99.90;;;;;;4993165;28;20490;-71
2024/01/17 08:53:50;;;;;;;14.43;11.25;;;-1.40;99.90;;;;;;4998271;28;20038;-72
2024/01/17 08:56:16;;;;;;;15.85;11.80;;;-1.30;99.90;;;;;;4989616;28;20254;-72
2024/01/17 08:58:42;;;;;;;17.73;12.18;;;-1.30;99.90;;;;;;4989458;28;20042;-72
2024/01/17 09:01:13;;;;;;;15.40;11.43;;;-1.30;99.90;;;;;;4983881;28;20049;-72
2024/01/17 09:03:39;;;;;;;18.73;12.00;;;-1.30;99.90;;;;;;4985677;28;20072;-71
2024/01/17 09:06:05;;;;;;;15.40;11.63;;;-1.20;99.90;;;;;;5001704;28;20066;-71
2024/01/17 09:08:31;;;;;;;16.35;12.20;;;-1.20;99.90;;;;;;4996127;28;20496;-72
2024/01/17 09:10:57;;;;;;;16.75;11.88;;;-1.20;99.90;;;;;;4994058;28;20514;-72
2024/01/17 09:13:23;;;;;;;17.50;11.82;;;-1.20;99.90;;;;;;4996132;28;20041;-72
2024/01/17 09:15:48;;;;;;;17.55;11.60;;;-1.10;99.90;;;;;;4980225;28;20125;-71
2024/01/17 09:18:17;;;;;;;16.17;11.80;;;-1.10;99.90;;;;;;4997235;28;20049;-72
2024/01/17 09:20:46;;;;;;;17.92;11.52;;;-1.10;99.90;;;;;;4989279;28;20193;-71
2024/01/17 09:23:13;;;;;;;16.23;11.93;;;-1.00;99.90;;;;;;5011300;28;20045;-72
2024/01/17 09:25:39;;;;;;;16.83;12.10;;;-1.00;99.90;;;;;;4991126;28;20049;-72
2024/01/17 09:28:05;;;;;;;17.27;12.02;;;-1.00;99.90;;;;;;4993457;28;20045;-71
2024/01/17 09:30:31;;;;;;;16.25;12.05;;;-0.90;99.90;;;;;;4995028;28;20497;-72
2024/01/17 09:32:57;;;;;;;17.08;11.88;;;-0.90;99.90;;;;;;4993826;28;20081;-72
2024/01/17 09:35:23;;;;;;;16.48;11.88;;;-0.90;99.90;;;;;;4996702;28;20116;-72
2024/01/17 09:37:48;;;;;;;19.00;11.85;;;-0.90;99.90;;;;;;4991757;28;20058;-72
2024/01/17 09:40:14;;;;;;;17.00;11.73;;;-0.90;99.90;;;;;;5015780;28;20179;-72
2024/01/17 09:42:41;;;;;;;19.10;12.90;;;-0.80;99.90;;;;;;4980808;28;20585;-71
2024/01/17 09:45:10;;;;;;;16.08;11.63;;;-0.80;99.90;;;;;;4989969;28;20401;-71
2024/01/17 09:47:38;;;;;;;19.98;11.30;;;-0.70;99.90;;;;;;4995402;28;20075;-71
2024/01/17 09:50:05;;;;;;;16.77;11.65;;;-0.60;99.90;;;;;;4993127;28;20524;-72
2024/01/17 09:52:33;;;;;;;18.48;11.50;;;-0.60;99.90;;;;;;5020926;28;20092;-72
2024/01/17 09:55:00;;;;;;;16.88;11.18;;;-0.60;99.90;;;;;;4980860;28;20559;-71
2024/01/17 09:57:29;;;;;;;17.58;11.57;;;-0.50;99.90;;;;;;4991770;28;20084;-72
2024/01/17 10:00:08;;;;;;;13.68;10.82;;;-0.40;99.90;;;;;;4994298;28;20156;-72
2024/01/17 10:02:41;;;;;;;17.27;10.60;;;-0.20;99.90;;;;;;4985512;28;20048;-72
2024/01/17 10:05:12;;;;;;;17.52;11.15;;;-0.10;99.90;;;;;;5021281;28;20443;-71
2024/01/17 10:07:38;;;;;;;16.77;10.73;;;-0.10;99.90;;;;;;5003564;28;20046;-71
2024/01/17 10:10:05;;;;;;;15.93;10.85;;;0.00;99.90;;;;;;4989393;28;20409;-72
2024/01/17 10:12:31;;;;;;;14.20;10.48;;;0.00;1.00;;;;;;5022750;28;20533;-71
2024/01/17 10:14:56;;;;;;;18.42;10.13;;;0.00;1.00;;;;;;4979720;28;20077;-71
2024/01/17 10:17:22;;;;;;;16.55;11.00;;;0.20;1.00;;;;;;5009515;28;20065;-72
2024/01/17 10:19:48;;;;;;;14.88;10.57;;;0.20;1.00;;;;;;4991579;28;20042;-71
2024/01/17 10:22:14;;;;;;;15.38;10.60;;;0.20;1.00;;;;;;5029786;28;20484;-71
2024/01/17 10:24:40;;;;;;;14.98;9.85;;;0.30;1.00;;;;;;4988703;28;20048;-72
2024/01/17 10:27:06;;;;;;;13.73;10.07;;;0.30;1.00;;;;;;5026667;28;20042;-72
2024/01/17 10:29:37;;;;;;;13.75;9.73;;;0.30;1.00;;;;;;4994145;28;20042;-72
2024/01/17 10:32:03;;;;;;;15.25;10.02;;;0.30;1.00;;;;;;4981735;28;20129;-72
2024/01/17 10:34:29;;;;;;;15.32;10.05;;;0.40;1.00;;;;;;4993574;28;20092;-72
2024/01/17 10:36:56;;;;;;;14.80;9.40;;;0.40;1.00;;;;;;4995933;28;20057;-72
2024/01/17 10:39:22;;;;;;;11.65;9.48;;;0.40;1.00;;;;;;4993321;28;20274;-72
2024/01/17 10:41:54;;;;;;;17.42;10.00;;;0.40;1.00;;;;;;4981893;28;20443;-72
2024/01/17 10:44:27;;;;;;;13.35;9.68;;;0.60;1.00;;;;;;4998909;28;20184;-72
2024/01/17 10:46:54;;;;;;;13.88;9.85;;;0.60;1.00;;;;;;4999007;28;20052;-72
2024/01/17 10:49:21;;;;;;;13.40;10.10;;;0.70;1.00;;;;;;4992716;28;20207;-72
2024/01/17 10:52:07;;;;;;;14.63;9.68;;;0.70;1.00;;;;;;4990542;28;20050;-72
2024/01/17 10:54:39;;;;;;;15.48;9.68;;;0.70;7.30;;;;;;5009774;28;20066;-72
2024/01/17 10:57:09;;;;;;;12.27;9.40;;;0.60;1.00;;;;;;4993316;28;20105;-72
2024/01/17 10:59:40;;;;;;;17.58;9.77;;;0.70;1.00;;;;;;4994560;28;20077;-72
2024/01/17 11:02:20;;;;;;;16.40;9.13;;;0.80;1.00;;;;;;4993280;28;20069;-72
2024/01/17 11:04:54;;;;;;;15.25;9.48;;;0.80;1.00;;;;;;4996947;28;20057;-72
2024/01/17 11:07:22;;;;;;;12.40;9.32;;;0.90;9.70;;;;;;4987125;28;20041;-72
2024/01/17 11:09:49;;;;;;;12.32;9.25;;;0.90;21.40;;;;;;4999671;28;20054;-72
2024/01/17 11:12:18;;;;;;;14.38;9.85;;;0.90;7.70;;;;;;5012962;28;20128;-72
2024/01/17 11:14:46;;;;;;;14.38;9.55;;;0.90;1.00;;;;;;4978530;28;20316;-72
2024/01/17 11:17:13;;;;;;;15.55;9.18;;;0.80;1.00;;;;;;4987060;28;20096;-72
2024/01/17 11:19:43;;;;;;;14.65;9.30;;;0.90;1.00;;;;;;4985792;28;20052;-72
2024/01/17 11:22:13;;;;;;;15.43;8.57;;;0.80;1.00;;;;;;4988874;28;20409;-72
2024/01/17 11:24:58;;;;;;;13.73;9.48;;;0.90;1.00;;;;;;4995487;28;20178;-72
2024/01/17 11:27:54;;;;;;;;;;;0.90;1.00;;;;;;4976857;28;20041;-72
2024/01/17 11:30:35;;;;;;;;;;;1.00;1.00;;;;;;5020015;28;19921;-72
2024/01/17 11:33:08;;;;;;;14.63;9.45;;;1.00;1.00;;;;;;5023821;28;20196;-72
2024/01/17 11:35:42;;;;;;;13.18;8.88;;;1.10;1.00;;;;;;5008805;28;20301;-72
2024/01/17 11:38:32;;;;;;;13.40;9.60;;;1.10;1.00;;;;;;4982743;28;20509;-73
2024/01/17 11:41:05;;;;;;;13.25;8.88;;;1.10;1.00;;;;;;5010159;28;20143;-72
2024/01/17 11:43:33;;;;;;;14.45;9.13;;;1.10;1.00;;;;;;4990385;28;20041;-72
2024/01/17 11:46:00;;;;;;;14.07;9.23;;;1.20;1.00;;;;;;4979773;28;20792;-73
2024/01/17 11:48:28;;;;;;;13.95;9.32;;;1.20;1.00;;;;;;4997019;28;20456;-73
2024/01/17 11:51:18;;;;;;;13.73;9.05;;;1.20;1.00;;;;;;4994421;28;20681;-73
2024/01/17 11:53:50;;;;;;;13.18;9.27;;;1.10;1.00;;;;;;4984398;28;20046;-73
2024/01/17 11:56:20;;;;;;;14.02;9.02;;;1.00;1.00;;;;;;4995468;28;20133;-73
2024/01/17 11:58:47;;;;;;;12.45;9.27;;;1.10;1.00;;;;;;4988575;28;20125;-73
2024/01/17 12:01:24;;;;;;;13.63;9.15;;;1.10;1.00;;;;;;4993592;28;20041;-73
2024/01/17 12:03:50;;;;;;;15.02;9.93;;;1.00;1.00;;;;;;4978856;28;21954;-74
2024/01/17 12:06:17;;;;;;;16.15;9.32;;;1.00;1.00;;;;;;4997713;28;20545;-73
2024/01/17 12:08:44;;;;;;;14.50;8.70;;;0.90;99.90;;;;;;5004140;28;20432;-73
2024/01/17 12:11:10;;;;;;;12.18;9.30;;;0.70;99.90;;;;;;4982408;28;20038;-73
2024/01/17 12:13:37;;;;;;;13.85;9.40;;;0.80;99.90;;;;;;4994781;28;20516;-73
2024/01/17 12:16:04;;;;;;;14.32;9.18;;;0.70;99.90;;;;;;4991879;28;20034;-73
2024/01/17 12:18:31;;;;;;;13.35;9.32;;;0.60;99.90;;;;;;4984316;28;20033;-73
2024/01/17 12:21:02;;;;;;;14.02;9.77;;;0.70;99.90;;;;;;4977739;28;20041;-73
2024/01/17 12:23:30;;;;;;;14.02;9.27;;;0.60;99.90;;;;;;4979449;28;20475;-73
2024/01/17 12:25:57;;;;;;;14.65;9.82;;;0.60;99.90;;;;;;4992956;28;20041;-73
2024/01/17 12:28:24;;;;;;;13.63;9.18;;;0.60;99.90;;;;;;5016473;28;20038;-73
2024/01/17 12:30:59;;;;;;;13.45;8.68;;;0.60;99.90;;;;;;5006595;28;20048;-73
2024/01/17 12:33:26;;;;;;;13.65;9.40;;;0.50;99.90;;;;;;4988813;28;20421;-73
2024/01/17 12:35:54;;;;;;;11.65;9.07;;;0.50;99.90;;;;;;5020836;28;20065;-73
2024/01/17 12:38:20;;;;;;;13.07;9.20;;;0.50;99.90;;;;;;4989039;28;20137;-73